createdAt,value
2022-08-22T00:00:10.714Z,99112.00
2022-08-22T00:01:10.863Z,99111.00
2022-08-22T00:02:10.782Z,99108.00
2022-08-22T00:02:43.200Z,99064.00
2022-08-22T00:02:45.720Z,99053.00
2022-08-22T00:02:46.390Z,99076.00
2022-08-22T00:02:48.496Z,99049.00
2022-08-22T00:02:49.713Z,99082.00
2022-08-22T00:02:53.247Z,99057.00
2022-08-22T00:03:01.813Z,99032.00
2022-08-22T00:03:11.735Z,99112.00
2022-08-22T00:04:10.706Z,99109.00
2022-08-22T00:05:10.771Z,99111.00
2022-08-22T00:06:10.737Z,99111.00
2022-08-22T00:07:10.763Z,99107.00
2022-08-22T00:08:10.768Z,99106.00
2022-08-22T00:09:10.805Z,99104.00
2022-08-22T00:10:10.773Z,99106.00
2022-08-22T00:11:10.778Z,99106.00
2022-08-22T00:12:10.790Z,99106.00
2022-08-22T00:13:10.816Z,99107.00
2022-08-22T00:14:10.805Z,99104.00
2022-08-22T00:15:27.937Z,99106.00
2022-08-22T00:16:10.850Z,99106.00
2022-08-22T00:17:10.881Z,99107.00
2022-08-22T00:18:10.882Z,99110.00
2022-08-22T00:19:10.898Z,99106.00
2022-08-22T00:20:10.899Z,99109.00
2022-08-22T00:21:10.916Z,99103.00
2022-08-22T00:22:10.934Z,99107.00
2022-08-22T00:23:10.973Z,99106.00
2022-08-22T00:24:10.959Z,99108.00
2022-08-22T00:25:24.779Z,99108.00
2022-08-22T00:26:10.972Z,99110.00
2022-08-22T00:27:10.999Z,99109.00
2022-08-22T00:28:11.017Z,99106.00
2022-08-22T00:29:11.042Z,99109.00
2022-08-22T00:30:11.038Z,99107.00
2022-08-22T00:31:11.056Z,99108.00
2022-08-22T00:32:11.146Z,99107.00
2022-08-22T00:33:11.113Z,99108.00
2022-08-22T00:34:11.092Z,99104.00
2022-08-22T00:35:11.108Z,99109.00
2022-08-22T00:36:11.116Z,99111.00
2022-08-22T00:37:11.136Z,99108.00
2022-08-22T00:38:11.164Z,99110.00
2022-08-22T00:39:11.183Z,99108.00
2022-08-22T00:40:11.236Z,99105.00
2022-08-22T00:41:11.210Z,99110.00
2022-08-22T00:42:11.220Z,99113.00
2022-08-22T00:43:11.219Z,99111.00
2022-08-22T00:44:11.247Z,99110.00
2022-08-22T00:45:11.288Z,99117.00
2022-08-22T00:46:11.269Z,99111.00
2022-08-22T00:47:11.293Z,99116.00
2022-08-22T00:48:11.313Z,99113.00
2022-08-22T00:49:11.344Z,99113.00
2022-08-22T00:50:11.333Z,99113.00
2022-08-22T00:51:11.344Z,99116.00
2022-08-22T00:52:11.384Z,99113.00
2022-08-22T00:53:11.412Z,99112.00
2022-08-22T00:54:18.008Z,99107.00
2022-08-22T00:55:11.461Z,99109.00
2022-08-22T00:56:11.490Z,99112.00
2022-08-22T00:57:11.485Z,99111.00
2022-08-22T00:58:11.518Z,99113.00
2022-08-22T00:59:23.313Z,99115.00
2022-08-22T01:00:11.579Z,99111.00
2022-08-22T01:01:11.629Z,99113.00
2022-08-22T01:02:11.557Z,99114.00
2022-08-22T01:03:11.596Z,99113.00
2022-08-22T01:04:11.631Z,99109.00
2022-08-22T01:05:11.641Z,99112.00
2022-08-22T01:06:11.664Z,99113.00
2022-08-22T01:07:11.699Z,99109.00
2022-08-22T01:08:11.718Z,99109.00
2022-08-22T01:09:11.700Z,99110.00
2022-08-22T01:10:11.738Z,99113.00
2022-08-22T01:11:11.779Z,99115.00
2022-08-22T01:12:11.758Z,99117.00
2022-08-22T01:13:11.767Z,99116.00
2022-08-22T01:14:11.790Z,99116.00
2022-08-22T01:15:11.835Z,99116.00
2022-08-22T01:16:11.813Z,99114.00
2022-08-22T01:17:11.835Z,99118.00
2022-08-22T01:18:11.893Z,99122.00
2022-08-22T01:19:11.861Z,99124.00
2022-08-22T01:20:11.882Z,99126.00
2022-08-22T01:21:11.905Z,99120.00
2022-08-22T01:22:11.918Z,99121.00
2022-08-22T01:23:11.935Z,99122.00
2022-08-22T01:24:11.963Z,99122.00
2022-08-22T01:25:12.001Z,99119.00
2022-08-22T01:26:11.973Z,99117.00
2022-08-22T01:27:11.997Z,99121.00
2022-08-22T01:28:11.997Z,99123.00
2022-08-22T01:29:11.996Z,99120.00
2022-08-22T01:30:12.005Z,99122.00
2022-08-22T01:31:12.046Z,99121.00
2022-08-22T01:32:12.047Z,99118.00
2022-08-22T01:33:12.083Z,99117.00
2022-08-22T01:34:13.026Z,99116.00
2022-08-22T01:35:12.116Z,99120.00
2022-08-22T01:36:12.140Z,99120.00
2022-08-22T01:37:12.171Z,99125.00
2022-08-22T01:38:12.192Z,99117.00
2022-08-22T01:39:12.217Z,99124.00
2022-08-22T01:40:12.331Z,99120.00
2022-08-22T01:41:12.263Z,99123.00
2022-08-22T01:42:12.275Z,99121.00
2022-08-22T01:43:12.279Z,99119.00
2022-08-22T01:44:12.308Z,99116.00
2022-08-22T01:45:12.327Z,99121.00
2022-08-22T01:46:12.308Z,99117.00
2022-08-22T01:47:12.328Z,99115.00
2022-08-22T01:48:12.358Z,99118.00
2022-08-22T01:49:12.389Z,99117.00
2022-08-22T01:50:12.409Z,99114.00
2022-08-22T01:51:12.426Z,99116.00
2022-08-22T01:52:12.466Z,99117.00
2022-08-22T01:53:12.481Z,99116.00
2022-08-22T01:54:12.498Z,99115.00
2022-08-22T01:55:12.515Z,99118.00
2022-08-22T01:56:12.540Z,99117.00
2022-08-22T01:57:12.561Z,99121.00
2022-08-22T01:58:12.588Z,99119.00
2022-08-22T01:59:12.579Z,99124.00
2022-08-22T02:00:12.617Z,99124.00
2022-08-22T02:01:12.743Z,99123.00
2022-08-22T02:02:12.629Z,99128.00
2022-08-22T02:03:12.639Z,99125.00
2022-08-22T02:04:12.652Z,99125.00
2022-08-22T02:05:12.678Z,99127.00
2022-08-22T02:06:14.444Z,99123.00
2022-08-22T02:07:12.690Z,99130.00
2022-08-22T02:08:12.729Z,99127.00
2022-08-22T02:09:12.717Z,99126.00
2022-08-22T02:10:12.731Z,99132.00
2022-08-22T02:11:12.749Z,99127.00
2022-08-22T02:12:21.440Z,99131.00
2022-08-22T02:13:12.824Z,99130.00
2022-08-22T02:14:12.794Z,99138.00
2022-08-22T02:15:12.818Z,99130.00
2022-08-22T02:16:12.826Z,99131.00
2022-08-22T02:17:12.810Z,99126.00
2022-08-22T02:18:12.835Z,99130.00
2022-08-22T02:19:12.844Z,99127.00
2022-08-22T02:20:12.871Z,99131.00
2022-08-22T02:21:12.886Z,99135.00
2022-08-22T02:22:12.921Z,99134.00
2022-08-22T02:23:12.895Z,99133.00
2022-08-22T02:24:12.881Z,99135.00
2022-08-22T02:25:12.920Z,99138.00
2022-08-22T02:26:12.932Z,99136.00
2022-08-22T02:27:12.959Z,99132.00
2022-08-22T02:28:12.986Z,99134.00
2022-08-22T02:29:13.007Z,99134.00
2022-08-22T02:30:13.040Z,99140.00
2022-08-22T02:31:15.254Z,99133.00
2022-08-22T02:32:13.068Z,99133.00
2022-08-22T02:33:13.072Z,99126.00
2022-08-22T02:34:13.055Z,99131.00
2022-08-22T02:35:13.166Z,99132.00
2022-08-22T02:36:13.077Z,99129.00
2022-08-22T02:37:13.096Z,99132.00
2022-08-22T02:38:13.127Z,99133.00
2022-08-22T02:39:13.139Z,99132.00
2022-08-22T02:40:13.228Z,99130.00
2022-08-22T02:41:13.176Z,99132.00
2022-08-22T02:42:13.210Z,99134.00
2022-08-22T02:43:13.241Z,99136.00
2022-08-22T02:44:13.255Z,99132.00
2022-08-22T02:45:13.287Z,99132.00
2022-08-22T02:46:13.330Z,99131.00
2022-08-22T02:47:13.310Z,99133.00
2022-08-22T02:48:13.312Z,99132.00
2022-08-22T02:49:13.295Z,99134.00
2022-08-22T02:50:13.333Z,99133.00
2022-08-22T02:51:13.351Z,99130.00
2022-08-22T02:52:13.384Z,99132.00
2022-08-22T02:53:13.401Z,99128.00
2022-08-22T02:54:13.416Z,99133.00
2022-08-22T02:55:13.428Z,99127.00
2022-08-22T02:56:13.439Z,99127.00
2022-08-22T02:57:14.553Z,99120.00
2022-08-22T02:58:13.530Z,99127.00
2022-08-22T02:59:13.492Z,99127.00
2022-08-22T03:00:32.146Z,99116.00
2022-08-22T03:01:13.555Z,99124.00
2022-08-22T03:02:13.537Z,99117.00
2022-08-22T03:03:13.574Z,99124.00
2022-08-22T03:04:13.546Z,99120.00
2022-08-22T03:05:13.576Z,99123.00
2022-08-22T03:06:13.585Z,99118.00
2022-08-22T03:07:13.590Z,99119.00
2022-08-22T03:08:13.641Z,99117.00
2022-08-22T03:09:13.617Z,99119.00
2022-08-22T03:10:13.641Z,99118.00
2022-08-22T03:11:13.655Z,99116.00
2022-08-22T03:12:13.678Z,99115.00
2022-08-22T03:13:13.685Z,99112.00
2022-08-22T03:14:13.710Z,99117.00
2022-08-22T03:15:13.725Z,99116.00
2022-08-22T03:16:13.741Z,99121.00
2022-08-22T03:17:13.773Z,99119.00
2022-08-22T03:18:13.807Z,99114.00
2022-08-22T03:19:18.962Z,99118.00
2022-08-22T03:20:13.846Z,99121.00
2022-08-22T03:21:13.865Z,99117.00
2022-08-22T03:22:13.877Z,99121.00
2022-08-22T03:23:13.904Z,99121.00
2022-08-22T03:24:13.887Z,99121.00
2022-08-22T03:25:13.904Z,99121.00
2022-08-22T03:26:13.942Z,99118.00
2022-08-22T03:27:13.961Z,99120.00
2022-08-22T03:28:13.991Z,99119.00
2022-08-22T03:29:14.004Z,99119.00
2022-08-22T03:30:14.019Z,99114.00
2022-08-22T03:31:14.049Z,99120.00
2022-08-22T03:32:14.087Z,99119.00
2022-08-22T03:33:14.097Z,99117.00
2022-08-22T03:34:14.102Z,99123.00
2022-08-22T03:35:14.112Z,99122.00
2022-08-22T03:36:14.144Z,99122.00
2022-08-22T03:37:14.175Z,99124.00
2022-08-22T03:38:14.167Z,99118.00
2022-08-22T03:39:17.309Z,99121.00
2022-08-22T03:40:14.241Z,99121.00
2022-08-22T03:41:14.167Z,99117.00
2022-08-22T03:42:14.210Z,99120.00
2022-08-22T03:43:14.214Z,99119.00
2022-08-22T03:44:14.243Z,99116.00
2022-08-22T03:45:14.262Z,99116.00
2022-08-22T03:46:14.271Z,99120.00
2022-08-22T03:47:14.289Z,99119.00
2022-08-22T03:48:14.314Z,99119.00
2022-08-22T03:49:14.338Z,99122.00
2022-08-22T03:50:14.305Z,99122.00
2022-08-22T03:51:14.323Z,99124.00
2022-08-22T03:52:14.332Z,99124.00
2022-08-22T03:53:18.677Z,99126.00
2022-08-22T03:54:14.376Z,99122.00
2022-08-22T03:55:14.373Z,99127.00
2022-08-22T03:56:14.404Z,99129.00
2022-08-22T03:57:14.413Z,99129.00
2022-08-22T03:58:17.148Z,99130.00
2022-08-22T03:59:14.437Z,99131.00
2022-08-22T04:00:14.475Z,99129.00
2022-08-22T04:01:14.606Z,99125.00
2022-08-22T04:02:42.308Z,99129.00
2022-08-22T04:03:14.524Z,99129.00
2022-08-22T04:04:14.554Z,99131.00
2022-08-22T04:05:14.565Z,99131.00
2022-08-22T04:06:14.571Z,99136.00
2022-08-22T04:07:28.416Z,99135.00
2022-08-22T04:08:14.579Z,99132.00
2022-08-22T04:09:14.589Z,99130.00
2022-08-22T04:10:14.610Z,99131.00
2022-08-22T04:11:14.633Z,99132.00
2022-08-22T04:12:14.614Z,99135.00
2022-08-22T04:13:14.664Z,99137.00
2022-08-22T04:14:14.637Z,99135.00
2022-08-22T04:15:14.660Z,99137.00
2022-08-22T04:16:14.678Z,99131.00
2022-08-22T04:17:14.700Z,99141.00
2022-08-22T04:18:14.686Z,99143.00
2022-08-22T04:19:14.720Z,99146.00
2022-08-22T04:20:16.692Z,99148.00
2022-08-22T04:21:14.743Z,99147.00
2022-08-22T04:22:14.757Z,99152.00
2022-08-22T04:23:14.762Z,99151.00
2022-08-22T04:24:14.771Z,99153.00
2022-08-22T04:25:14.777Z,99153.00
2022-08-22T04:26:14.795Z,99153.00
2022-08-22T04:27:14.850Z,99156.00
2022-08-22T04:28:14.820Z,99157.00
2022-08-22T04:29:14.864Z,99156.00
2022-08-22T04:30:14.884Z,99155.00
2022-08-22T04:31:14.908Z,99154.00
2022-08-22T04:32:14.937Z,99156.00
2022-08-22T04:33:14.923Z,99154.00
2022-08-22T04:34:14.928Z,99157.00
2022-08-22T04:35:14.948Z,99155.00
2022-08-22T04:36:14.978Z,99157.00
2022-08-22T04:37:14.962Z,99159.00
2022-08-22T04:38:14.962Z,99157.00
2022-08-22T04:39:14.960Z,99157.00
2022-08-22T04:40:15.091Z,99156.00
2022-08-22T04:41:15.011Z,99154.00
2022-08-22T04:42:32.407Z,99158.00
2022-08-22T04:43:15.023Z,99157.00
2022-08-22T04:44:15.028Z,99159.00
2022-08-22T04:45:15.065Z,99161.00
2022-08-22T04:46:15.053Z,99162.00
2022-08-22T04:47:15.068Z,99159.00
2022-08-22T04:48:15.095Z,99166.00
2022-08-22T04:49:15.177Z,99162.00
2022-08-22T04:50:15.163Z,99165.00
2022-08-22T04:51:15.364Z,99167.00
2022-08-22T04:52:15.134Z,99164.00
2022-08-22T04:53:15.154Z,99170.00
2022-08-22T04:54:15.178Z,99174.00
2022-08-22T04:55:15.201Z,99173.00
2022-08-22T04:56:15.219Z,99176.00
2022-08-22T04:57:15.201Z,99180.00
2022-08-22T04:58:15.211Z,99181.00
2022-08-22T04:59:15.231Z,99189.00
2022-08-22T05:00:15.228Z,99184.00
2022-08-22T05:02:41.131Z,99193.00
2022-08-22T05:03:44.889Z,99191.00
2022-08-22T05:04:41.164Z,99189.00
2022-08-22T05:05:41.197Z,99196.00
2022-08-22T05:06:41.179Z,99197.00
2022-08-22T05:07:41.212Z,99194.00
2022-08-22T05:08:41.263Z,99198.00
2022-08-22T05:09:41.261Z,99204.00
2022-08-22T05:10:41.292Z,99202.00
2022-08-22T05:11:41.293Z,99198.00
2022-08-22T05:12:41.316Z,99201.00
2022-08-22T05:13:41.340Z,99202.00
2022-08-22T05:14:41.357Z,99203.00
2022-08-22T05:15:41.320Z,99197.00
2022-08-22T05:16:41.305Z,99201.00
2022-08-22T05:17:41.363Z,99202.00
2022-08-22T05:18:41.360Z,99205.00
2022-08-22T05:19:41.406Z,99209.00
2022-08-22T05:20:41.409Z,99206.00
2022-08-22T05:21:41.421Z,99206.00
2022-08-22T05:22:41.467Z,99207.00
2022-08-22T05:23:41.486Z,99207.00
2022-08-22T05:24:41.516Z,99210.00
2022-08-22T05:25:41.517Z,99207.00
2022-08-22T05:26:41.569Z,99208.00
2022-08-22T05:27:41.616Z,99213.00
2022-08-22T05:28:41.591Z,99212.00
2022-08-22T05:29:41.599Z,99213.00
2022-08-22T05:30:41.629Z,99209.00
2022-08-22T05:31:41.639Z,99211.00
2022-08-22T05:32:41.663Z,99205.00
2022-08-22T05:33:41.693Z,99203.00
2022-08-22T05:34:41.702Z,99208.00
2022-08-22T05:35:44.905Z,99200.00
2022-08-22T05:36:41.744Z,99202.00
2022-08-22T05:37:42.431Z,99204.00
2022-08-22T05:38:41.747Z,99203.00
2022-08-22T05:39:41.855Z,99206.00
2022-08-22T05:40:41.798Z,99203.00
2022-08-22T05:41:41.799Z,99204.00
2022-08-22T05:42:41.832Z,99204.00
2022-08-22T05:43:41.823Z,99208.00
2022-08-22T05:44:41.864Z,99207.00
2022-08-22T05:45:41.906Z,99207.00
2022-08-22T05:46:41.913Z,99212.00
2022-08-22T05:47:41.915Z,99208.00
2022-08-22T05:48:41.953Z,99216.00
2022-08-22T05:49:41.954Z,99207.00
2022-08-22T05:50:41.987Z,99210.00
2022-08-22T05:51:42.018Z,99209.00
2022-08-22T05:52:42.041Z,99217.00
2022-08-22T05:53:42.086Z,99215.00
2022-08-22T05:54:42.071Z,99216.00
2022-08-22T05:55:42.084Z,99215.00
2022-08-22T05:56:42.097Z,99209.00
2022-08-22T05:57:42.108Z,99212.00
2022-08-22T05:58:42.139Z,99211.00
2022-08-22T05:59:42.159Z,99204.00
2022-08-22T06:00:42.157Z,99206.00
2022-08-22T06:01:42.239Z,99202.00
2022-08-22T06:02:42.200Z,99204.00
2022-08-22T06:03:42.224Z,99204.00
2022-08-22T06:04:42.260Z,99206.00
2022-08-22T06:05:42.273Z,99201.00
2022-08-22T06:06:42.303Z,99202.00
2022-08-22T06:07:42.319Z,99202.00
2022-08-22T06:08:42.353Z,99205.00
2022-08-22T06:09:42.338Z,99201.00
2022-08-22T06:10:42.377Z,99200.00
2022-08-22T06:11:42.392Z,99198.00
2022-08-22T06:12:43.243Z,99197.00
2022-08-22T06:13:42.415Z,99201.00
2022-08-22T06:14:42.451Z,99201.00
2022-08-22T06:15:42.492Z,99200.00
2022-08-22T06:16:48.118Z,99197.00
2022-08-22T06:17:42.498Z,99197.00
2022-08-22T06:18:42.492Z,99199.00
2022-08-22T06:19:42.518Z,99198.00
2022-08-22T06:20:42.542Z,99199.00
2022-08-22T06:21:42.499Z,99195.00
2022-08-22T06:22:42.531Z,99197.00
2022-08-22T06:23:42.568Z,99198.00
2022-08-22T06:24:42.554Z,99198.00
2022-08-22T06:25:42.534Z,99200.00
2022-08-22T06:26:45.203Z,99199.00
2022-08-22T06:27:42.566Z,99201.00
2022-08-22T06:28:55.452Z,99200.00
2022-08-22T06:29:42.617Z,99199.00
2022-08-22T06:30:42.597Z,99198.00
2022-08-22T06:31:42.617Z,99200.00
2022-08-22T06:32:44.578Z,99203.00
2022-08-22T06:33:45.786Z,99201.00
2022-08-22T06:34:42.672Z,99201.00
2022-08-22T06:35:42.693Z,99206.00
2022-08-22T06:36:42.716Z,99203.00
2022-08-22T06:37:42.751Z,99202.00
2022-08-22T06:38:42.788Z,99199.00
2022-08-22T06:39:42.905Z,99207.00
2022-08-22T06:40:42.811Z,99206.00
2022-08-22T06:41:42.852Z,99204.00
2022-08-22T06:42:42.876Z,99206.00
2022-08-22T06:43:42.900Z,99205.00
2022-08-22T06:44:42.931Z,99207.00
2022-08-22T06:45:42.934Z,99204.00
2022-08-22T06:46:42.935Z,99205.00
2022-08-22T06:47:43.461Z,99199.00
2022-08-22T06:48:42.929Z,99198.00
2022-08-22T06:49:42.937Z,99204.00
2022-08-22T06:50:42.963Z,99199.00
2022-08-22T06:51:42.952Z,99197.00
2022-08-22T06:52:43.002Z,99194.00
2022-08-22T06:53:47.809Z,99194.00
2022-08-22T06:54:42.950Z,99192.00
2022-08-22T06:55:42.971Z,99193.00
2022-08-22T06:56:42.994Z,99191.00
2022-08-22T06:57:43.035Z,99193.00
2022-08-22T06:58:43.060Z,99192.00
2022-08-22T06:59:43.046Z,99193.00
2022-08-22T07:00:43.077Z,99191.00
2022-08-22T07:01:43.166Z,99190.00
2022-08-22T07:02:43.112Z,99194.00
2022-08-22T07:03:43.160Z,99195.00
2022-08-22T07:04:43.134Z,99193.00
2022-08-22T07:05:43.153Z,99199.00
2022-08-22T07:06:43.137Z,99195.00
2022-08-22T07:07:43.179Z,99198.00
2022-08-22T07:08:43.185Z,99197.00
2022-08-22T07:09:43.218Z,99192.00
2022-08-22T07:10:43.183Z,99197.00
2022-08-22T07:11:43.205Z,99198.00
2022-08-22T07:12:43.210Z,99196.00
2022-08-22T07:13:43.274Z,99197.00
2022-08-22T07:14:43.234Z,99198.00
2022-08-22T07:15:43.285Z,99195.00
2022-08-22T07:16:43.293Z,99197.00
2022-08-22T07:17:43.325Z,99195.00
2022-08-22T07:18:43.367Z,99191.00
2022-08-22T07:19:43.350Z,99198.00
2022-08-22T07:20:43.392Z,99199.00
2022-08-22T07:21:43.414Z,99198.00
2022-08-22T07:22:43.437Z,99201.00
2022-08-22T07:23:43.470Z,99200.00
2022-08-22T07:24:43.467Z,99198.00
2022-08-22T07:25:43.443Z,99196.00
2022-08-22T07:26:43.469Z,99199.00
2022-08-22T07:27:43.496Z,99197.00
2022-08-22T07:28:51.241Z,99196.00
2022-08-22T07:29:43.549Z,99195.00
2022-08-22T07:30:43.547Z,99199.00
2022-08-22T07:31:43.566Z,99194.00
2022-08-22T07:32:43.558Z,99196.00
2022-08-22T07:33:43.619Z,99192.00
2022-08-22T07:34:43.614Z,99194.00
2022-08-22T07:35:43.578Z,99194.00
2022-08-22T07:36:43.612Z,99194.00
2022-08-22T07:37:43.600Z,99197.00
2022-08-22T07:38:43.626Z,99195.00
2022-08-22T07:39:43.697Z,99194.00
2022-08-22T07:40:43.678Z,99191.00
2022-08-22T07:41:43.666Z,99192.00
2022-08-22T07:42:43.632Z,99195.00
2022-08-22T07:43:43.663Z,99194.00
2022-08-22T07:44:43.712Z,99194.00
2022-08-22T07:45:43.720Z,99195.00
2022-08-22T07:46:43.707Z,99194.00
2022-08-22T07:47:48.021Z,99197.00
2022-08-22T07:48:59.503Z,99196.00
2022-08-22T07:49:49.766Z,99197.00
2022-08-22T07:50:43.803Z,99198.00
2022-08-22T07:51:43.794Z,99200.00
2022-08-22T07:52:43.819Z,99202.00
2022-08-22T07:53:43.905Z,99207.00
2022-08-22T07:54:43.834Z,99204.00
2022-08-22T07:55:49.427Z,99202.00
2022-08-22T07:56:43.900Z,99203.00
2022-08-22T07:57:43.922Z,99204.00
2022-08-22T07:58:43.958Z,99203.00
2022-08-22T07:59:43.988Z,99197.00
2022-08-22T08:00:44.005Z,99203.00
2022-08-22T08:01:44.113Z,99201.00
2022-08-22T08:02:44.051Z,99202.00
2022-08-22T08:03:44.052Z,99205.00
2022-08-22T08:04:44.060Z,99201.00
2022-08-22T08:05:44.097Z,99205.00
2022-08-22T08:06:44.080Z,99202.00
2022-08-22T08:07:44.135Z,99204.00
2022-08-22T08:08:44.093Z,99201.00
2022-08-22T08:09:44.109Z,99203.00
2022-08-22T08:10:44.155Z,99201.00
2022-08-22T08:11:44.167Z,99206.00
2022-08-22T08:12:44.213Z,99206.00
2022-08-22T08:13:44.218Z,99207.00
2022-08-22T08:14:44.261Z,99202.00
2022-08-22T08:15:44.297Z,99206.00
2022-08-22T08:16:44.286Z,99204.00
2022-08-22T08:17:44.312Z,99208.00
2022-08-22T08:18:44.749Z,99207.00
2022-08-22T08:19:44.359Z,99210.00
2022-08-22T08:20:44.382Z,99208.00
2022-08-22T08:21:44.399Z,99205.00
2022-08-22T08:22:44.430Z,99205.00
2022-08-22T08:23:44.439Z,99206.00
2022-08-22T08:24:44.785Z,99205.00
2022-08-22T08:25:44.461Z,99201.00
2022-08-22T08:26:44.496Z,99203.00
2022-08-22T08:27:44.448Z,99202.00
2022-08-22T08:28:44.480Z,99201.00
2022-08-22T08:29:44.534Z,99202.00
2022-08-22T08:30:44.520Z,99204.00
2022-08-22T08:31:44.996Z,99204.00
2022-08-22T08:32:44.510Z,99207.00
2022-08-22T08:33:44.551Z,99203.00
2022-08-22T08:34:44.579Z,99203.00
2022-08-22T08:36:03.583Z,99203.00
2022-08-22T08:36:44.639Z,99206.00
2022-08-22T08:37:44.682Z,99209.00
2022-08-22T08:38:44.652Z,99208.00
2022-08-22T08:39:44.728Z,99204.00
2022-08-22T08:40:44.664Z,99202.00
2022-08-22T08:41:44.653Z,99200.00
2022-08-22T08:42:44.667Z,99197.00
2022-08-22T08:43:44.702Z,99194.00
2022-08-22T08:44:44.752Z,99191.00
2022-08-22T08:45:44.727Z,99181.00
2022-08-22T08:46:50.226Z,99187.00
2022-08-22T08:47:44.769Z,99189.00
2022-08-22T08:48:44.786Z,99186.00
2022-08-22T08:49:44.778Z,99186.00
2022-08-22T08:50:44.796Z,99184.00
2022-08-22T08:51:45.046Z,99183.00
2022-08-22T08:52:44.855Z,99183.00
2022-08-22T08:53:44.819Z,99182.00
2022-08-22T08:54:44.797Z,99181.00
2022-08-22T08:55:44.815Z,99182.00
2022-08-22T08:57:44.846Z,99183.00
2022-08-22T08:58:44.851Z,99183.00
2022-08-22T08:59:44.860Z,99182.00
2022-08-22T09:00:44.853Z,99188.00
2022-08-22T09:01:44.955Z,99186.00
2022-08-22T09:02:44.879Z,99186.00
2022-08-22T09:03:44.937Z,99188.00
2022-08-22T09:04:44.889Z,99186.00
2022-08-22T09:05:44.920Z,99187.00
2022-08-22T09:06:44.925Z,99186.00
2022-08-22T09:07:44.954Z,99185.00
2022-08-22T09:08:44.988Z,99186.00
2022-08-22T09:09:44.982Z,99185.00
2022-08-22T09:10:44.999Z,99183.00
2022-08-22T09:11:45.007Z,99182.00
2022-08-22T09:12:56.349Z,99183.00
2022-08-22T09:13:45.041Z,99186.00
2022-08-22T09:14:45.019Z,99184.00
2022-08-22T09:15:58.673Z,99187.00
2022-08-22T09:16:49.042Z,99182.00
2022-08-22T09:17:45.095Z,99184.00
2022-08-22T09:18:45.119Z,99186.00
2022-08-22T09:19:45.163Z,99186.00
2022-08-22T09:20:45.160Z,99185.00
2022-08-22T09:21:45.176Z,99183.00
2022-08-22T09:22:50.642Z,99187.00
2022-08-22T09:23:45.209Z,99180.00
2022-08-22T09:24:45.246Z,99184.00
2022-08-22T09:25:45.261Z,99188.00
2022-08-22T09:26:45.293Z,99188.00
2022-08-22T09:27:45.335Z,99186.00
2022-08-22T09:28:45.326Z,99185.00
2022-08-22T09:29:51.675Z,99185.00
2022-08-22T09:30:45.368Z,99185.00
2022-08-22T09:31:47.906Z,99186.00
2022-08-22T09:32:45.429Z,99185.00
2022-08-22T09:33:45.398Z,99178.00
2022-08-22T09:34:45.415Z,99181.00
2022-08-22T09:35:45.415Z,99181.00
2022-08-22T09:36:45.454Z,99179.00
2022-08-22T09:37:45.454Z,99180.00
2022-08-22T09:38:47.724Z,99179.00
2022-08-22T09:39:45.474Z,99181.00
2022-08-22T09:40:45.434Z,99177.00
2022-08-22T09:41:45.475Z,99180.00
2022-08-22T09:42:46.427Z,99179.00
2022-08-22T09:43:48.637Z,99177.00
2022-08-22T09:44:45.537Z,99171.00
2022-08-22T09:45:45.568Z,99178.00
2022-08-22T09:46:45.560Z,99175.00
2022-08-22T09:47:45.576Z,99177.00
2022-08-22T09:48:45.569Z,99178.00
2022-08-22T09:49:45.580Z,99173.00
2022-08-22T09:50:45.620Z,99173.00
2022-08-22T09:51:45.623Z,99180.00
2022-08-22T09:52:45.625Z,99177.00
2022-08-22T09:53:45.619Z,99181.00
2022-08-22T09:54:45.604Z,99180.00
2022-08-22T09:55:45.621Z,99174.00
2022-08-22T09:56:45.659Z,99177.00
2022-08-22T09:57:45.635Z,99180.00
2022-08-22T09:58:45.649Z,99181.00
2022-08-22T09:59:45.647Z,99181.00
2022-08-22T10:00:45.673Z,99175.00
2022-08-22T10:01:45.691Z,99180.00
2022-08-22T10:02:45.725Z,99180.00
2022-08-22T10:03:45.732Z,99184.00
2022-08-22T10:04:45.721Z,99181.00
2022-08-22T10:05:45.725Z,99181.00
2022-08-22T10:06:45.709Z,99179.00
2022-08-22T10:07:45.736Z,99178.00
2022-08-22T10:08:46.192Z,99178.00
2022-08-22T10:09:46.262Z,99174.00
2022-08-22T10:10:45.778Z,99175.00
2022-08-22T10:11:45.787Z,99168.00
2022-08-22T10:12:45.792Z,99170.00
2022-08-22T10:13:45.810Z,99175.00
2022-08-22T10:14:51.165Z,99170.00
2022-08-22T10:15:45.800Z,99171.00
2022-08-22T10:16:45.796Z,99175.00
2022-08-22T10:17:45.805Z,99173.00
2022-08-22T10:18:54.708Z,99171.00
2022-08-22T10:19:45.813Z,99173.00
2022-08-22T10:20:45.821Z,99174.00
2022-08-22T10:21:45.814Z,99177.00
2022-08-22T10:22:45.846Z,99178.00
2022-08-22T10:23:46.086Z,99175.00
2022-08-22T10:24:45.862Z,99176.00
2022-08-22T10:25:45.823Z,99171.00
2022-08-22T10:26:45.832Z,99173.00
2022-08-22T10:27:45.855Z,99176.00
2022-08-22T10:28:45.881Z,99180.00
2022-08-22T10:29:45.896Z,99176.00
2022-08-22T10:30:45.879Z,99172.00
2022-08-22T10:31:59.014Z,99170.00
2022-08-22T10:32:45.943Z,99168.00
2022-08-22T10:33:45.925Z,99163.00
2022-08-22T10:34:45.928Z,99169.00
2022-08-22T10:35:45.950Z,99161.00
2022-08-22T10:36:45.963Z,99156.00
2022-08-22T10:37:46.621Z,99159.00
2022-08-22T10:38:46.883Z,99156.00
2022-08-22T10:39:46.104Z,99161.00
2022-08-22T10:40:46.017Z,99160.00
2022-08-22T10:41:46.047Z,99160.00
2022-08-22T10:42:46.080Z,99156.00
2022-08-22T10:43:46.061Z,99156.00
2022-08-22T10:44:46.068Z,99153.00
2022-08-22T10:45:46.100Z,99149.00
2022-08-22T10:46:46.070Z,99150.00
2022-08-22T10:47:46.123Z,99152.00
2022-08-22T10:48:46.138Z,99149.00
2022-08-22T10:49:46.135Z,99150.00
2022-08-22T10:50:46.156Z,99149.00
2022-08-22T10:51:46.148Z,99149.00
2022-08-22T10:52:46.187Z,99145.00
2022-08-22T10:53:46.181Z,99144.00
2022-08-22T10:54:46.196Z,99136.00
2022-08-22T10:55:46.229Z,99136.00
2022-08-22T10:56:46.269Z,99135.00
2022-08-22T10:57:50.696Z,99132.00
2022-08-22T10:58:46.325Z,99129.00
2022-08-22T10:59:46.328Z,99128.00
2022-08-22T11:00:50.145Z,99126.00
2022-08-22T11:01:46.367Z,99127.00
2022-08-22T11:02:46.306Z,99126.00
2022-08-22T11:03:46.331Z,99127.00
2022-08-22T11:04:46.302Z,99127.00
2022-08-22T11:05:50.028Z,99123.00
2022-08-22T11:06:46.345Z,99126.00
2022-08-22T11:07:48.406Z,99124.00
2022-08-22T11:08:46.374Z,99120.00
2022-08-22T11:09:46.400Z,99119.00
2022-08-22T11:10:46.436Z,99118.00
2022-08-22T11:11:46.463Z,99117.00
2022-08-22T11:12:46.491Z,99116.00
2022-08-22T11:13:46.480Z,99114.00
2022-08-22T11:14:46.497Z,99111.00
2022-08-22T11:15:46.531Z,99113.00
2022-08-22T11:16:46.549Z,99111.00
2022-08-22T11:17:46.592Z,99114.00
2022-08-22T11:18:51.483Z,99113.00
2022-08-22T11:19:46.628Z,99111.00
2022-08-22T11:20:46.652Z,99107.00
2022-08-22T11:21:46.675Z,99109.00
2022-08-22T11:22:47.088Z,99102.00
2022-08-22T11:23:46.696Z,99107.00
2022-08-22T11:24:56.275Z,99103.00
2022-08-22T11:25:46.717Z,99103.00
2022-08-22T11:26:47.765Z,99100.00
2022-08-22T11:27:46.742Z,99100.00
2022-08-22T11:28:46.783Z,99104.00
2022-08-22T11:29:46.784Z,99099.00
2022-08-22T11:30:46.804Z,99099.00
2022-08-22T11:31:47.265Z,99095.00
2022-08-22T11:32:46.827Z,99095.00
2022-08-22T11:33:47.791Z,99098.00
2022-08-22T11:34:46.853Z,99100.00
2022-08-22T11:35:46.888Z,99100.00
2022-08-22T11:36:46.885Z,99098.00
2022-08-22T11:37:46.889Z,99100.00
2022-08-22T11:38:46.917Z,99102.00
2022-08-22T11:39:47.167Z,99098.00